Terminal Aerodrome Forecast
Issued by NWS

Home | Current Version | Previous Version | Text Only | Print | Product List | Glossary On
Versions: 1 2 3 4 5 6 7 8 9 10 11 12 13 14 15 16 17 18 19 20 21 22 23 24
000
FTUS45 KGJT 280520
TAFTEX
TAF
KTEX 280520Z 2806/2906 00000KT P6SM SKC
     FM281500 00000KT P6SM SKC
     FM281700 28004KT P6SM VCSH FEW250
     FM282300 VRB03KT P6SM SCT200=

USA.gov is the U.S. government's official web portal to all federal, state and local government web resources and services.